createdAt,value
2023-05-09T00:01:31.717Z,101059.91
2023-05-09T00:03:59.609Z,101060.47
2023-05-09T00:06:27.912Z,101062.28
2023-05-09T00:08:55.867Z,101055.47
2023-05-09T00:11:23.309Z,101039.00
2023-05-09T00:13:50.896Z,101045.53
2023-05-09T00:16:18.754Z,101047.31
2023-05-09T00:18:47.187Z,101044.44
2023-05-09T00:21:14.553Z,101051.69
2023-05-09T00:23:41.839Z,101049.09
2023-05-09T00:26:10.165Z,101029.66
2023-05-09T00:28:38.282Z,101035.22
2023-05-09T00:31:05.677Z,101041.63
2023-05-09T00:33:32.992Z,101049.16
2023-05-09T00:36:00.362Z,101035.84
2023-05-09T00:38:28.306Z,101039.44
2023-05-09T00:40:55.699Z,101029.81
2023-05-09T00:43:23.039Z,101040.91
2023-05-09T00:45:50.420Z,101045.03
2023-05-09T00:48:17.742Z,101048.00
2023-05-09T00:50:45.088Z,101047.53
2023-05-09T00:53:12.434Z,101051.34
2023-05-09T00:55:40.078Z,101041.72
2023-05-09T00:58:07.381Z,101032.06
2023-05-09T01:00:34.691Z,101043.53
2023-05-09T01:03:02.054Z,101044.41
2023-05-09T01:05:44.567Z,101046.56
2023-05-09T01:08:18.116Z,101047.66
2023-05-09T01:11:12.641Z,101027.13
2023-05-09T01:13:44.924Z,101041.19
2023-05-09T01:16:49.625Z,101044.41
2023-05-09T01:19:44.259Z,101025.16
2023-05-09T01:22:12.201Z,101044.41
2023-05-09T01:25:27.264Z,101033.66
2023-05-09T01:28:29.490Z,101030.25
2023-05-09T01:30:56.970Z,101034.16
2023-05-09T01:33:24.376Z,101039.69
2023-05-09T01:35:52.927Z,101032.78
2023-05-09T01:38:22.052Z,101026.88
2023-05-09T01:40:50.320Z,101030.66
2023-05-09T01:43:17.959Z,101024.81
2023-05-09T01:45:45.312Z,101028.59
2023-05-09T01:48:12.588Z,101033.34
2023-05-09T01:50:39.847Z,101029.28
2023-05-09T01:53:07.161Z,101022.44
2023-05-09T01:55:34.883Z,101034.25
2023-05-09T01:58:06.238Z,101007.38
2023-05-09T02:00:34.202Z,101021.88
2023-05-09T02:03:02.131Z,101028.50
2023-05-09T02:05:29.862Z,101034.53
2023-05-09T02:07:58.584Z,101017.88
2023-05-09T02:10:27.492Z,101024.47
2023-05-09T02:12:55.165Z,101025.16
2023-05-09T02:15:22.934Z,101031.34
2023-05-09T02:17:51.490Z,101032.06
2023-05-09T02:20:18.823Z,101034.88
2023-05-09T02:22:46.120Z,101023.28
2023-05-09T02:25:15.740Z,101012.31
2023-05-09T02:27:44.256Z,101011.31
2023-05-09T02:30:15.186Z,101018.88
2023-05-09T02:32:43.443Z,101024.97
2023-05-09T02:35:10.843Z,101020.94
2023-05-09T02:37:39.048Z,101021.81
2023-05-09T02:40:09.286Z,101017.13
2023-05-09T02:42:36.747Z,101011.97
2023-05-09T02:45:04.392Z,101024.09
2023-05-09T02:47:31.991Z,101021.69
2023-05-09T02:49:59.300Z,101017.34
2023-05-09T02:52:26.540Z,101019.16
2023-05-09T02:54:53.787Z,101025.63
2023-05-09T02:57:21.354Z,101027.34
2023-05-09T02:59:48.680Z,101022.41
2023-05-09T03:02:16.800Z,101027.66
2023-05-09T03:04:44.450Z,101017.13
2023-05-09T03:07:12.170Z,101010.81
2023-05-09T03:09:41.082Z,101015.59
2023-05-09T03:12:08.627Z,101018.06
2023-05-09T03:14:36.739Z,101009.81
2023-05-09T03:17:04.075Z,101026.69
2023-05-09T03:19:35.341Z,101023.06
2023-05-09T03:22:02.683Z,101031.34
2023-05-09T03:24:33.234Z,101018.34
2023-05-09T03:27:00.566Z,101024.28
2023-05-09T03:29:28.297Z,101024.97
2023-05-09T03:31:55.746Z,101023.38
2023-05-09T03:34:23.268Z,101023.28
2023-05-09T03:36:50.620Z,101019.53
2023-05-09T03:39:17.913Z,101020.41
2023-05-09T03:41:48.866Z,101034.97
2023-05-09T03:44:16.222Z,101034.97
2023-05-09T03:46:43.531Z,101014.50
2023-05-09T03:49:11.045Z,101032.56
2023-05-09T03:51:39.995Z,101035.91
2023-05-09T03:54:12.805Z,101027.03
2023-05-09T03:56:40.870Z,101042.78
2023-05-09T03:59:08.201Z,101029.25
2023-05-09T04:04:04.468Z,101032.97
2023-05-09T04:06:34.508Z,101043.63
2023-05-09T04:09:03.129Z,101046.25
2023-05-09T04:11:30.706Z,101047.75
2023-05-09T04:13:59.581Z,101041.06
2023-05-09T04:16:31.229Z,101051.44
2023-05-09T04:18:59.252Z,101031.81
2023-05-09T04:21:26.545Z,101036.91
2023-05-09T04:23:56.922Z,101049.47
2023-05-09T04:26:31.531Z,101042.34
2023-05-09T04:28:59.872Z,101042.56
2023-05-09T04:31:27.957Z,101046.25
2023-05-09T04:33:58.359Z,101048.53
2023-05-09T04:36:27.808Z,101051.31
2023-05-09T04:38:57.627Z,101051.16
2023-05-09T04:41:27.754Z,101048.78
2023-05-09T04:43:56.320Z,101049.56
2023-05-09T04:46:26.361Z,101042.50
2023-05-09T04:48:54.219Z,101054.66
2023-05-09T04:51:21.514Z,101056.84
2023-05-09T04:53:49.995Z,101053.66
2023-05-09T04:56:19.855Z,101058.66
2023-05-09T04:58:48.771Z,101052.38
2023-05-09T05:01:16.842Z,101053.16
2023-05-09T05:03:44.672Z,101042.47
2023-05-09T05:06:12.102Z,101057.00
2023-05-09T05:08:41.703Z,101059.41
2023-05-09T05:11:09.619Z,101066.19
2023-05-09T05:13:36.977Z,101045.16
2023-05-09T05:16:04.560Z,101050.47
2023-05-09T05:18:31.952Z,101050.63
2023-05-09T05:20:59.246Z,101052.31
2023-05-09T05:23:27.420Z,101054.91
2023-05-09T05:25:55.710Z,101055.53
2023-05-09T05:28:23.565Z,101051.91
2023-05-09T05:30:50.917Z,101059.44
2023-05-09T05:33:18.228Z,101057.34
2023-05-09T05:35:45.765Z,101064.81
2023-05-09T05:38:14.311Z,101061.91
2023-05-09T05:40:42.884Z,101061.50
2023-05-09T05:43:10.497Z,101061.28
2023-05-09T05:45:39.386Z,101065.19
2023-05-09T05:48:09.487Z,101061.78
2023-05-09T05:50:36.781Z,101057.63
2023-05-09T05:53:04.591Z,101062.44
2023-05-09T05:55:31.945Z,101045.34
2023-05-09T05:57:59.334Z,101052.28
2023-05-09T06:00:26.719Z,101054.25
2023-05-09T06:03:01.474Z,101054.09
2023-05-09T06:05:35.051Z,101056.16
2023-05-09T06:08:02.406Z,101050.00
2023-05-09T06:10:29.729Z,101057.31
2023-05-09T06:12:57.059Z,101053.63
2023-05-09T06:15:24.383Z,101054.41
2023-05-09T06:17:51.701Z,101059.50
2023-05-09T06:20:19.077Z,101061.25
2023-05-09T06:22:46.409Z,101050.75
2023-05-09T06:25:13.896Z,101052.34
2023-05-09T06:27:42.188Z,101048.19
2023-05-09T06:30:23.720Z,101050.44
2023-05-09T06:32:52.640Z,101045.66
2023-05-09T06:35:19.920Z,101040.03
2023-05-09T06:37:48.573Z,101036.38
2023-05-09T06:40:17.109Z,101043.44
2023-05-09T06:42:44.940Z,101047.22
2023-05-09T06:45:12.627Z,101036.25
2023-05-09T06:47:40.139Z,101032.47
2023-05-09T06:50:08.322Z,101040.34
2023-05-09T06:52:35.987Z,101043.19
2023-05-09T06:55:03.917Z,101042.66
2023-05-09T06:57:31.304Z,101037.41
2023-05-09T06:59:58.601Z,101033.47
2023-05-09T07:02:26.048Z,101044.88
2023-05-09T07:04:53.418Z,101036.03
2023-05-09T07:07:20.730Z,101038.19
2023-05-09T07:09:49.322Z,101034.63
2023-05-09T07:12:20.150Z,101027.63
2023-05-09T07:14:47.424Z,101024.81
2023-05-09T07:17:23.040Z,101025.25
2023-05-09T07:19:51.694Z,101023.22
2023-05-09T07:22:19.282Z,101026.84
2023-05-09T07:24:46.729Z,101030.09
2023-05-09T07:27:14.054Z,101025.31
2023-05-09T07:29:41.366Z,101015.84
2023-05-09T07:32:08.922Z,101017.34
2023-05-09T07:34:36.416Z,101017.59
2023-05-09T07:37:03.780Z,101014.38
2023-05-09T07:39:31.138Z,101013.47
2023-05-09T07:41:58.513Z,101004.16
2023-05-09T07:44:25.894Z,100998.28
2023-05-09T07:46:55.448Z,101003.75
2023-05-09T07:49:22.777Z,100993.41
2023-05-09T07:51:50.044Z,100995.25
2023-05-09T07:54:17.478Z,100982.25
2023-05-09T07:56:44.764Z,101000.22
2023-05-09T07:59:12.408Z,100994.34
2023-05-09T08:01:39.698Z,100990.25
2023-05-09T08:04:09.200Z,100989.91
2023-05-09T08:06:36.758Z,100986.81
2023-05-09T08:09:05.119Z,100973.19
2023-05-09T08:11:36.058Z,100980.34
2023-05-09T08:14:03.539Z,100969.19
2023-05-09T08:16:31.170Z,100969.84
2023-05-09T08:18:58.466Z,100976.66
2023-05-09T08:21:26.669Z,100974.53
2023-05-09T08:23:54.078Z,100962.31
2023-05-09T08:26:22.748Z,100970.53
2023-05-09T08:28:50.062Z,100973.53
2023-05-09T08:31:17.570Z,100968.97
2023-05-09T08:33:44.947Z,100963.53
2023-05-09T08:36:12.251Z,100963.78
2023-05-09T08:38:40.587Z,100973.78
2023-05-09T08:41:08.005Z,100974.34
2023-05-09T08:43:35.490Z,100973.25
2023-05-09T08:46:08.030Z,100979.88
2023-05-09T08:48:38.196Z,100971.34
2023-05-09T08:51:06.300Z,100965.88
2023-05-09T08:53:34.270Z,100956.66
2023-05-09T08:56:02.978Z,100957.97
2023-05-09T08:58:31.241Z,100959.38
2023-05-09T09:00:58.509Z,100956.84
2023-05-09T09:03:26.407Z,100949.19
2023-05-09T09:05:54.491Z,100952.94
2023-05-09T09:08:22.502Z,100956.56
2023-05-09T09:10:49.867Z,100945.16
2023-05-09T09:13:17.561Z,100948.50
2023-05-09T09:15:46.322Z,100956.53
2023-05-09T09:18:17.303Z,100946.34
2023-05-09T09:21:06.723Z,100938.66
2023-05-09T09:23:34.226Z,100950.25
2023-05-09T09:26:02.251Z,100941.16
2023-05-09T09:28:29.878Z,100950.22
2023-05-09T09:30:57.146Z,100947.19
2023-05-09T09:33:25.959Z,100949.50
2023-05-09T09:35:54.597Z,100944.75
2023-05-09T09:38:22.792Z,100935.16
2023-05-09T09:40:54.787Z,100940.59
2023-05-09T09:43:29.079Z,100928.13
2023-05-09T09:45:57.225Z,100937.31
2023-05-09T09:48:27.907Z,100934.91
2023-05-09T09:50:56.958Z,100931.13
2023-05-09T09:53:30.899Z,100923.91
2023-05-09T09:55:58.611Z,100925.75
2023-05-09T09:58:26.006Z,100924.91
2023-05-09T10:01:09.354Z,100919.06
2023-05-09T10:03:40.713Z,100908.03
2023-05-09T10:06:14.751Z,100921.69
2023-05-09T10:08:42.956Z,100919.44
2023-05-09T10:11:10.494Z,100914.63
2023-05-09T10:13:38.482Z,100905.13
2023-05-09T10:16:06.128Z,100908.59
2023-05-09T10:18:33.980Z,100908.47
2023-05-09T10:21:03.446Z,100911.78
2023-05-09T10:23:31.913Z,100914.56
2023-05-09T10:26:18.880Z,100898.13
2023-05-09T10:28:46.810Z,100902.06
2023-05-09T10:31:28.377Z,100895.50
2023-05-09T10:33:56.132Z,100896.56
2023-05-09T10:36:26.436Z,100907.97
2023-05-09T10:38:55.157Z,100904.06
2023-05-09T10:41:22.655Z,100897.06
2023-05-09T10:43:50.141Z,100880.78
2023-05-09T10:46:17.823Z,100890.22
2023-05-09T10:48:45.313Z,100896.50
2023-05-09T10:51:12.673Z,100877.06
2023-05-09T10:53:48.584Z,100884.78
2023-05-09T10:56:35.984Z,100884.59
2023-05-09T10:59:03.386Z,100883.41
2023-05-09T11:01:39.258Z,100882.19
2023-05-09T11:04:17.154Z,100839.16
2023-05-09T11:06:49.494Z,100865.00
2023-05-09T11:09:33.741Z,100876.09
2023-05-09T11:12:21.959Z,100870.25
2023-05-09T11:14:50.153Z,100867.91
2023-05-09T11:17:24.632Z,100853.31
2023-05-09T11:19:51.896Z,100848.16
2023-05-09T11:22:28.645Z,100846.25
2023-05-09T11:25:27.822Z,100847.75
2023-05-09T11:27:58.830Z,100843.94
2023-05-09T11:30:35.874Z,100845.13
2023-05-09T11:33:03.632Z,100833.09
2023-05-09T11:35:31.421Z,100836.66
2023-05-09T11:38:07.781Z,100834.63
2023-05-09T11:40:35.316Z,100838.84
2023-05-09T11:43:02.710Z,100831.31
2023-05-09T11:45:33.527Z,100832.44
2023-05-09T11:48:01.463Z,100830.06
2023-05-09T11:50:29.496Z,100829.22
2023-05-09T11:52:56.891Z,100822.66
2023-05-09T11:55:27.403Z,100822.09
2023-05-09T11:57:54.873Z,100812.91
2023-05-09T12:00:23.392Z,100816.28
2023-05-09T12:02:51.518Z,100820.41
2023-05-09T12:05:20.231Z,100807.53
2023-05-09T12:07:47.699Z,100803.94
2023-05-09T12:10:22.845Z,100802.91
2023-05-09T12:12:51.742Z,100798.06
2023-05-09T12:15:22.341Z,100801.47
2023-05-09T12:18:05.915Z,100799.00
2023-05-09T12:20:50.564Z,100782.19
2023-05-09T12:23:18.128Z,100802.66
2023-05-09T12:25:57.880Z,100805.06
2023-05-09T12:28:25.621Z,100806.44
2023-05-09T12:30:53.283Z,100801.22
2023-05-09T12:33:22.802Z,100778.09
2023-05-09T12:36:07.898Z,100787.78
2023-05-09T12:38:38.138Z,100780.66
2023-05-09T12:41:10.741Z,100783.44
2023-05-09T12:43:47.981Z,100778.22
2023-05-09T12:46:19.228Z,100771.16
2023-05-09T12:48:47.586Z,100771.34
2023-05-09T12:51:23.697Z,100775.47
2023-05-09T12:53:50.993Z,100762.38
2023-05-09T12:56:23.539Z,100773.50
2023-05-09T12:58:52.364Z,100759.47
2023-05-09T13:01:20.691Z,100773.69
2023-05-09T13:04:06.203Z,100753.94
2023-05-09T13:06:34.516Z,100753.03
2023-05-09T13:09:05.764Z,100744.28
2023-05-09T13:11:33.218Z,100731.59
2023-05-09T13:14:02.410Z,100744.38
2023-05-09T13:16:29.726Z,100732.44
2023-05-09T13:18:57.017Z,100740.28
2023-05-09T13:21:24.398Z,100735.78
2023-05-09T13:23:52.203Z,100736.25
2023-05-09T13:26:19.617Z,100730.75
2023-05-09T13:28:46.979Z,100719.03
2023-05-09T13:31:14.484Z,100730.00
2023-05-09T13:33:41.867Z,100726.78
2023-05-09T13:36:09.227Z,100733.47
2023-05-09T13:38:40.442Z,100733.41
2023-05-09T13:41:08.131Z,100720.59
2023-05-09T13:43:35.842Z,100734.66
2023-05-09T13:46:03.390Z,100718.94
2023-05-09T13:48:30.723Z,100724.25
2023-05-09T13:50:59.904Z,100703.88
2023-05-09T13:53:27.502Z,100725.00
2023-05-09T13:55:54.947Z,100718.53
2023-05-09T13:58:22.722Z,100721.06
2023-05-09T14:00:50.356Z,100708.50
2023-05-09T14:03:17.818Z,100705.75
2023-05-09T14:05:45.144Z,100693.97
2023-05-09T14:08:12.497Z,100703.00
2023-05-09T14:10:39.756Z,100707.28
2023-05-09T14:13:08.506Z,100694.34
2023-05-09T14:15:36.313Z,100706.78
2023-05-09T14:18:03.897Z,100700.50
2023-05-09T14:20:31.352Z,100691.88
2023-05-09T14:23:00.746Z,100692.66
2023-05-09T14:25:28.109Z,100686.44
2023-05-09T14:27:55.398Z,100694.22
2023-05-09T14:30:23.017Z,100699.66
2023-05-09T14:32:50.898Z,100686.63
2023-05-09T14:35:18.539Z,100678.38
2023-05-09T14:37:45.963Z,100690.13
2023-05-09T14:40:13.531Z,100693.06
2023-05-09T14:42:41.190Z,100679.63
2023-05-09T14:45:12.106Z,100685.09
2023-05-09T14:47:39.518Z,100680.69
2023-05-09T14:50:11.174Z,100684.28
2023-05-09T14:52:39.564Z,100673.69
2023-05-09T14:55:07.476Z,100679.25
2023-05-09T14:57:34.855Z,100674.53
2023-05-09T15:00:16.652Z,100677.69
2023-05-09T15:02:48.312Z,100676.91
2023-05-09T15:05:16.734Z,100674.44
2023-05-09T15:07:44.032Z,100678.28
2023-05-09T15:10:11.434Z,100665.03
2023-05-09T15:12:38.710Z,100665.06
2023-05-09T15:15:20.078Z,100659.88
2023-05-09T15:17:47.442Z,100649.53
2023-05-09T15:20:18.244Z,100660.56
2023-05-09T15:22:46.751Z,100654.25
2023-05-09T15:25:15.095Z,100650.63
2023-05-09T15:27:42.591Z,100638.31
2023-05-09T15:30:10.291Z,100647.16
2023-05-09T15:32:40.820Z,100642.28
2023-05-09T15:35:08.724Z,100644.06
2023-05-09T15:37:36.485Z,100640.13
2023-05-09T15:40:04.333Z,100636.88
2023-05-09T15:42:31.705Z,100636.09
2023-05-09T15:44:58.940Z,100627.84
2023-05-09T15:47:26.309Z,100626.19
2023-05-09T15:49:53.626Z,100618.09
2023-05-09T15:52:20.943Z,100633.63
2023-05-09T15:54:48.357Z,100619.38
2023-05-09T15:57:16.872Z,100615.78
2023-05-09T15:59:44.272Z,100619.88
2023-05-09T16:02:12.422Z,100612.81
2023-05-09T16:04:39.801Z,100611.53
2023-05-09T16:07:08.639Z,100603.44
2023-05-09T16:09:37.388Z,100609.09
2023-05-09T16:12:05.447Z,100612.00
2023-05-09T16:14:32.879Z,100608.03
2023-05-09T16:17:00.214Z,100600.97
2023-05-09T16:19:27.555Z,100597.84
2023-05-09T16:21:56.253Z,100602.78
2023-05-09T16:24:23.618Z,100596.56
2023-05-09T16:26:50.912Z,100606.22
2023-05-09T16:29:18.274Z,100599.66
2023-05-09T16:31:45.816Z,100594.66
2023-05-09T16:34:14.450Z,100605.28
2023-05-09T16:36:44.119Z,100602.09
2023-05-09T16:39:11.477Z,100595.75
2023-05-09T16:41:38.809Z,100589.84
2023-05-09T16:44:06.083Z,100593.69
2023-05-09T16:46:33.450Z,100592.81
2023-05-09T16:49:00.733Z,100582.19
2023-05-09T16:51:28.080Z,100591.78
2023-05-09T16:53:55.454Z,100591.16
2023-05-09T16:56:23.393Z,100592.34
2023-05-09T16:58:51.753Z,100585.09
2023-05-09T17:01:19.161Z,100586.53
2023-05-09T17:03:46.498Z,100590.38
2023-05-09T17:06:14.004Z,100580.91
2023-05-09T17:08:41.321Z,100585.03
2023-05-09T17:11:09.071Z,100574.28
2023-05-09T17:13:36.404Z,100586.00
2023-05-09T17:16:03.935Z,100581.16
2023-05-09T17:18:37.566Z,100579.88
2023-05-09T17:21:05.611Z,100580.63
2023-05-09T17:23:32.867Z,100579.41
2023-05-09T17:26:01.695Z,100578.44
2023-05-09T17:28:30.239Z,100582.25
2023-05-09T17:30:59.084Z,100583.75
2023-05-09T17:33:26.972Z,100574.13
2023-05-09T17:35:54.703Z,100586.97
2023-05-09T17:38:22.008Z,100580.81
2023-05-09T17:40:49.320Z,100587.34
2023-05-09T17:43:16.634Z,100583.69
2023-05-09T17:45:44.346Z,100590.91
2023-05-09T17:48:11.696Z,100581.91
2023-05-09T17:50:39.006Z,100582.03
2023-05-09T17:53:08.801Z,100587.00
2023-05-09T17:55:39.174Z,100582.19
2023-05-09T17:58:08.085Z,100586.28
2023-05-09T18:00:35.507Z,100586.03
2023-05-09T18:03:04.098Z,100587.00
2023-05-09T18:05:31.579Z,100585.44
2023-05-09T18:08:00.889Z,100586.16
2023-05-09T18:10:28.861Z,100585.28
2023-05-09T18:12:56.280Z,100571.72
2023-05-09T18:15:24.360Z,100571.72
2023-05-09T18:17:53.773Z,100585.31
2023-05-09T18:20:21.195Z,100589.72
2023-05-09T18:22:48.618Z,100598.09
2023-05-09T18:25:17.090Z,100597.25
2023-05-09T18:27:44.443Z,100600.72
2023-05-09T18:30:12.255Z,100604.25
2023-05-09T18:32:40.540Z,100593.81
2023-05-09T18:35:08.508Z,100596.72
2023-05-09T18:37:36.930Z,100607.25
2023-05-09T18:40:05.479Z,100606.72
2023-05-09T18:42:32.789Z,100604.97
2023-05-09T18:45:00.986Z,100612.00
2023-05-09T18:47:28.406Z,100602.59
2023-05-09T18:49:55.719Z,100614.38
2023-05-09T18:52:24.240Z,100615.94
2023-05-09T18:54:51.532Z,100616.19
2023-05-09T18:57:20.000Z,100615.75
2023-05-09T18:59:47.615Z,100607.16
2023-05-09T19:02:14.876Z,100612.59
2023-05-09T19:04:46.097Z,100617.06
2023-05-09T19:07:15.062Z,100608.38
2023-05-09T19:09:42.380Z,100620.75
2023-05-09T19:12:09.831Z,100617.56
2023-05-09T19:14:38.087Z,100619.88
2023-05-09T19:17:07.794Z,100618.19
2023-05-09T19:19:35.164Z,100619.53
2023-05-09T19:22:02.405Z,100601.91
2023-05-09T19:24:32.066Z,100604.97
2023-05-09T19:26:59.408Z,100603.72
2023-05-09T19:29:26.915Z,100613.88
2023-05-09T19:31:56.647Z,100612.59
2023-05-09T19:34:24.010Z,100616.16
2023-05-09T19:36:52.607Z,100612.03
2023-05-09T19:39:19.860Z,100604.38
2023-05-09T19:41:47.226Z,100608.25
2023-05-09T19:44:14.545Z,100605.09
2023-05-09T19:46:43.132Z,100606.03
2023-05-09T19:49:10.675Z,100610.78
2023-05-09T19:51:38.374Z,100610.56
2023-05-09T19:54:05.913Z,100608.66
2023-05-09T19:56:33.195Z,100599.53
2023-05-09T19:59:00.545Z,100604.97
2023-05-09T20:01:28.404Z,100614.22
2023-05-09T20:03:56.841Z,100607.00
2023-05-09T20:06:25.434Z,100606.78
2023-05-09T20:08:52.717Z,100610.16
2023-05-09T20:11:21.009Z,100611.28
2023-05-09T20:13:48.348Z,100607.69
2023-05-09T20:16:15.834Z,100614.66
2023-05-09T20:18:44.340Z,100603.59
2023-05-09T20:21:11.710Z,100610.47
2023-05-09T20:23:39.685Z,100610.78
2023-05-09T20:26:06.980Z,100609.41
2023-05-09T20:28:34.319Z,100589.28
2023-05-09T20:31:01.581Z,100608.44
2023-05-09T20:33:29.139Z,100608.75
2023-05-09T20:35:56.425Z,100605.22
2023-05-09T20:38:23.736Z,100588.97
2023-05-09T20:40:51.032Z,100600.91
2023-05-09T20:43:19.244Z,100610.53
2023-05-09T20:45:46.569Z,100602.34
2023-05-09T20:48:13.873Z,100612.91
2023-05-09T20:50:41.173Z,100607.25
2023-05-09T20:53:08.498Z,100610.94
2023-05-09T20:55:35.842Z,100607.25
2023-05-09T20:58:03.193Z,100599.28
2023-05-09T21:00:30.611Z,100609.84
2023-05-09T21:02:58.816Z,100609.88
2023-05-09T21:05:26.382Z,100612.38
2023-05-09T21:07:53.689Z,100600.00
2023-05-09T21:10:21.089Z,100602.75
2023-05-09T21:12:48.557Z,100591.94
2023-05-09T21:15:16.039Z,100602.44
2023-05-09T21:17:43.428Z,100588.28
2023-05-09T21:20:11.126Z,100593.53
2023-05-09T21:22:38.475Z,100593.25
2023-05-09T21:25:06.479Z,100591.25
2023-05-09T21:27:33.755Z,100591.88
2023-05-09T21:30:01.046Z,100589.66
2023-05-09T21:32:28.722Z,100582.75
2023-05-09T21:34:56.070Z,100591.06
2023-05-09T21:37:23.422Z,100588.22
2023-05-09T21:39:50.808Z,100583.63
2023-05-09T21:42:18.173Z,100596.31
2023-05-09T21:44:45.485Z,100590.53
2023-05-09T21:47:12.936Z,100583.88
2023-05-09T21:49:40.842Z,100583.97
2023-05-09T21:52:08.211Z,100593.19
2023-05-09T21:54:35.709Z,100584.78
2023-05-09T21:57:03.037Z,100583.31
2023-05-09T21:59:30.401Z,100580.25
2023-05-09T22:01:57.771Z,100575.34
2023-05-09T22:04:25.076Z,100581.50
2023-05-09T22:06:52.381Z,100580.91
2023-05-09T22:09:19.707Z,100574.72
2023-05-09T22:11:47.048Z,100585.69
2023-05-09T22:14:14.336Z,100588.88
2023-05-09T22:16:41.688Z,100585.25
2023-05-09T22:19:09.059Z,100590.47
2023-05-09T22:21:36.362Z,100580.94
2023-05-09T22:24:03.903Z,100582.19
2023-05-09T22:26:31.163Z,100573.34
2023-05-09T22:28:58.477Z,100576.50
2023-05-09T22:31:25.854Z,100577.16
2023-05-09T22:33:53.166Z,100574.47
2023-05-09T22:36:20.440Z,100559.09
2023-05-09T22:38:47.677Z,100574.66
2023-05-09T22:41:14.909Z,100568.63
2023-05-09T22:43:42.229Z,100554.19
2023-05-09T22:46:09.499Z,100570.53
2023-05-09T22:48:36.792Z,100572.28
2023-05-09T22:51:04.070Z,100556.88
2023-05-09T22:53:31.364Z,100567.66
2023-05-09T22:55:58.777Z,100562.44
2023-05-09T22:58:26.469Z,100563.06
2023-05-09T23:00:53.795Z,100556.72
2023-05-09T23:03:21.830Z,100552.88
2023-05-09T23:05:49.254Z,100568.38
2023-05-09T23:08:16.552Z,100564.56
2023-05-09T23:10:44.184Z,100551.44
2023-05-09T23:13:12.336Z,100543.19
2023-05-09T23:15:39.731Z,100563.19
2023-05-09T23:18:09.907Z,100563.19
2023-05-09T23:20:37.251Z,100561.28
2023-05-09T23:23:04.777Z,100555.25
2023-05-09T23:25:32.118Z,100560.44
2023-05-09T23:27:59.384Z,100560.44
2023-05-09T23:30:26.644Z,100559.81
2023-05-09T23:32:54.076Z,100561.09
2023-05-09T23:35:22.286Z,100558.69
2023-05-09T23:37:49.522Z,100559.59
2023-05-09T23:40:16.865Z,100559.88
2023-05-09T23:42:44.346Z,100553.56
2023-05-09T23:45:12.696Z,100557.47
2023-05-09T23:47:39.980Z,100553.19
2023-05-09T23:50:07.914Z,100541.38
2023-05-09T23:52:35.186Z,100547.19
2023-05-09T23:55:02.534Z,100546.75
2023-05-09T23:57:29.829Z,100545.50
2023-05-09T23:59:57.109Z,100550.63
